sensor_id;sensor_type;location;lat;lon;timestamp;P1;durP1;ratioP1;P2;durP2;ratioP2
11066;SDS011;29763;50.904;5.530;2022-07-23T00:00:17;8.57;;;7.38;;
11066;SDS011;29763;50.904;5.530;2022-07-23T00:02:43;8.00;;;7.30;;
11066;SDS011;29763;50.904;5.530;2022-07-23T00:05:09;8.57;;;7.72;;
11066;SDS011;29763;50.904;5.530;2022-07-23T00:07:36;8.90;;;8.02;;
11066;SDS011;29763;50.904;5.530;2022-07-23T00:10:03;8.60;;;7.82;;
11066;SDS011;29763;50.904;5.530;2022-07-23T00:12:30;8.52;;;7.50;;
11066;SDS011;29763;50.904;5.530;2022-07-23T00:14:56;7.97;;;7.22;;
11066;SDS011;29763;50.904;5.530;2022-07-23T00:17:24;8.30;;;7.50;;
11066;SDS011;29763;50.904;5.530;2022-07-23T00:19:49;8.40;;;7.60;;
11066;SDS011;29763;50.904;5.530;2022-07-23T00:22:18;7.40;;;6.80;;
11066;SDS011;29763;50.904;5.530;2022-07-23T00:24:45;7.75;;;7.07;;
11066;SDS011;29763;50.904;5.530;2022-07-23T00:27:11;7.90;;;7.20;;
11066;SDS011;29763;50.904;5.530;2022-07-23T00:29:37;8.73;;;7.55;;
11066;SDS011;29763;50.904;5.530;2022-07-23T00:32:09;9.00;;;8.07;;
11066;SDS011;29763;50.904;5.530;2022-07-23T00:34:36;8.80;;;7.80;;
11066;SDS011;29763;50.904;5.530;2022-07-23T00:37:03;8.57;;;7.78;;
11066;SDS011;29763;50.904;5.530;2022-07-23T00:39:32;8.98;;;8.13;;
11066;SDS011;29763;50.904;5.530;2022-07-23T00:42:00;9.13;;;8.18;;
11066;SDS011;29763;50.904;5.530;2022-07-23T00:44:26;9.40;;;7.80;;
11066;SDS011;29763;50.904;5.530;2022-07-23T00:46:54;8.95;;;8.05;;
11066;SDS011;29763;50.904;5.530;2022-07-23T00:49:24;8.70;;;7.88;;
11066;SDS011;29763;50.904;5.530;2022-07-23T00:51:52;9.02;;;8.15;;
11066;SDS011;29763;50.904;5.530;2022-07-23T00:54:21;9.18;;;8.27;;
11066;SDS011;29763;50.904;5.530;2022-07-23T00:56:49;8.07;;;7.38;;
11066;SDS011;29763;50.904;5.530;2022-07-23T00:59:15;8.80;;;8.05;;
11066;SDS011;29763;50.904;5.530;2022-07-23T01:01:47;10.10;;;9.10;;
11066;SDS011;29763;50.904;5.530;2022-07-23T01:04:14;9.55;;;8.55;;
11066;SDS011;29763;50.904;5.530;2022-07-23T01:06:42;9.35;;;8.45;;
11066;SDS011;29763;50.904;5.530;2022-07-23T01:09:11;10.23;;;9.25;;
11066;SDS011;29763;50.904;5.530;2022-07-23T01:11:39;9.82;;;8.82;;
11066;SDS011;29763;50.904;5.530;2022-07-23T01:14:12;11.13;;;9.35;;
11066;SDS011;29763;50.904;5.530;2022-07-23T01:16:40;8.73;;;7.88;;
11066;SDS011;29763;50.904;5.530;2022-07-23T01:19:07;11.27;;;9.18;;
11066;SDS011;29763;50.904;5.530;2022-07-23T01:21:35;10.63;;;9.15;;
11066;SDS011;29763;50.904;5.530;2022-07-23T01:24:03;10.27;;;9.25;;
11066;SDS011;29763;50.904;5.530;2022-07-23T01:26:29;9.98;;;8.95;;
11066;SDS011;29763;50.904;5.530;2022-07-23T01:28:57;10.07;;;9.07;;
11066;SDS011;29763;50.904;5.530;2022-07-23T01:31:23;9.32;;;8.48;;
11066;SDS011;29763;50.904;5.530;2022-07-23T01:33:49;10.38;;;9.27;;
11066;SDS011;29763;50.904;5.530;2022-07-23T01:36:17;10.02;;;9.13;;
11066;SDS011;29763;50.904;5.530;2022-07-23T01:38:45;10.40;;;9.45;;
11066;SDS011;29763;50.904;5.530;2022-07-23T01:41:11;9.85;;;8.85;;
11066;SDS011;29763;50.904;5.530;2022-07-23T01:43:37;9.90;;;9.05;;
11066;SDS011;29763;50.904;5.530;2022-07-23T01:46:02;10.30;;;9.40;;
11066;SDS011;29763;50.904;5.530;2022-07-23T01:48:28;10.20;;;9.20;;
11066;SDS011;29763;50.904;5.530;2022-07-23T01:50:55;11.75;;;9.55;;
11066;SDS011;29763;50.904;5.530;2022-07-23T01:53:21;9.95;;;9.13;;
11066;SDS011;29763;50.904;5.530;2022-07-23T01:55:54;10.13;;;9.23;;
11066;SDS011;29763;50.904;5.530;2022-07-23T01:58:19;11.82;;;10.20;;
11066;SDS011;29763;50.904;5.530;2022-07-23T02:00:45;10.35;;;9.35;;
11066;SDS011;29763;50.904;5.530;2022-07-23T02:03:14;9.82;;;8.82;;
11066;SDS011;29763;50.904;5.530;2022-07-23T02:05:40;10.73;;;9.57;;
11066;SDS011;29763;50.904;5.530;2022-07-23T02:08:07;10.02;;;8.95;;
11066;SDS011;29763;50.904;5.530;2022-07-23T02:10:34;11.13;;;10.13;;
11066;SDS011;29763;50.904;5.530;2022-07-23T02:13:01;9.82;;;8.93;;
11066;SDS011;29763;50.904;5.530;2022-07-23T02:15:27;10.15;;;9.25;;
11066;SDS011;29763;50.904;5.530;2022-07-23T02:17:54;11.00;;;9.52;;
11066;SDS011;29763;50.904;5.530;2022-07-23T02:20:22;9.93;;;9.02;;
11066;SDS011;29763;50.904;5.530;2022-07-23T02:22:48;10.13;;;9.23;;
11066;SDS011;29763;50.904;5.530;2022-07-23T02:25:19;11.32;;;10.07;;
11066;SDS011;29763;50.904;5.530;2022-07-23T02:27:45;10.27;;;9.07;;
11066;SDS011;29763;50.904;5.530;2022-07-23T02:30:14;11.13;;;10.02;;
11066;SDS011;29763;50.904;5.530;2022-07-23T02:32:41;10.93;;;9.80;;
11066;SDS011;29763;50.904;5.530;2022-07-23T02:35:13;11.10;;;10.00;;
11066;SDS011;29763;50.904;5.530;2022-07-23T02:37:44;11.07;;;9.73;;
11066;SDS011;29763;50.904;5.530;2022-07-23T02:40:11;10.95;;;10.00;;
11066;SDS011;29763;50.904;5.530;2022-07-23T02:42:37;11.30;;;10.13;;
11066;SDS011;29763;50.904;5.530;2022-07-23T02:45:05;10.82;;;9.73;;
11066;SDS011;29763;50.904;5.530;2022-07-23T02:47:32;11.80;;;10.40;;
11066;SDS011;29763;50.904;5.530;2022-07-23T02:49:59;12.05;;;10.88;;
11066;SDS011;29763;50.904;5.530;2022-07-23T02:52:26;12.32;;;11.15;;
11066;SDS011;29763;50.904;5.530;2022-07-23T02:54:51;11.40;;;10.30;;
11066;SDS011;29763;50.904;5.530;2022-07-23T02:57:18;11.80;;;10.60;;
11066;SDS011;29763;50.904;5.530;2022-07-23T02:59:44;11.50;;;10.40;;
11066;SDS011;29763;50.904;5.530;2022-07-23T03:02:10;11.57;;;10.18;;
11066;SDS011;29763;50.904;5.530;2022-07-23T03:04:36;12.23;;;10.43;;
11066;SDS011;29763;50.904;5.530;2022-07-23T03:07:02;11.65;;;9.93;;
11066;SDS011;29763;50.904;5.530;2022-07-23T03:09:28;11.57;;;10.38;;
11066;SDS011;29763;50.904;5.530;2022-07-23T03:11:54;10.55;;;9.52;;
11066;SDS011;29763;50.904;5.530;2022-07-23T03:14:21;10.18;;;9.10;;
11066;SDS011;29763;50.904;5.530;2022-07-23T03:16:46;10.63;;;9.63;;
11066;SDS011;29763;50.904;5.530;2022-07-23T03:19:14;10.23;;;9.20;;
11066;SDS011;29763;50.904;5.530;2022-07-23T03:21:46;11.52;;;10.32;;
11066;SDS011;29763;50.904;5.530;2022-07-23T03:24:12;10.48;;;9.48;;
11066;SDS011;29763;50.904;5.530;2022-07-23T03:26:37;11.35;;;10.18;;
11066;SDS011;29763;50.904;5.530;2022-07-23T03:29:05;11.40;;;10.35;;
11066;SDS011;29763;50.904;5.530;2022-07-23T03:31:32;11.65;;;10.48;;
11066;SDS011;29763;50.904;5.530;2022-07-23T03:33:58;10.98;;;9.95;;
11066;SDS011;29763;50.904;5.530;2022-07-23T03:36:23;9.73;;;8.70;;
11066;SDS011;29763;50.904;5.530;2022-07-23T03:38:51;9.15;;;8.32;;
11066;SDS011;29763;50.904;5.530;2022-07-23T03:41:18;11.38;;;9.68;;
11066;SDS011;29763;50.904;5.530;2022-07-23T03:43:46;11.40;;;10.30;;
11066;SDS011;29763;50.904;5.530;2022-07-23T03:46:12;10.55;;;9.50;;
11066;SDS011;29763;50.904;5.530;2022-07-23T03:48:38;9.57;;;8.73;;
11066;SDS011;29763;50.904;5.530;2022-07-23T03:51:05;9.88;;;8.88;;
11066;SDS011;29763;50.904;5.530;2022-07-23T03:53:32;10.85;;;9.77;;
11066;SDS011;29763;50.904;5.530;2022-07-23T03:55:59;11.23;;;8.70;;
11066;SDS011;29763;50.904;5.530;2022-07-23T03:58:25;10.70;;;9.38;;
11066;SDS011;29763;50.904;5.530;2022-07-23T04:00:59;10.60;;;9.43;;
11066;SDS011;29763;50.904;5.530;2022-07-23T04:03:24;12.25;;;9.43;;
11066;SDS011;29763;50.904;5.530;2022-07-23T04:05:54;10.40;;;9.40;;
11066;SDS011;29763;50.904;5.530;2022-07-23T04:08:20;10.80;;;9.80;;
11066;SDS011;29763;50.904;5.530;2022-07-23T04:10:47;9.85;;;8.90;;
11066;SDS011;29763;50.904;5.530;2022-07-23T04:13:12;11.23;;;10.23;;
11066;SDS011;29763;50.904;5.530;2022-07-23T04:15:38;10.77;;;9.68;;
11066;SDS011;29763;50.904;5.530;2022-07-23T04:18:05;13.88;;;10.48;;
11066;SDS011;29763;50.904;5.530;2022-07-23T04:20:31;14.77;;;11.57;;
11066;SDS011;29763;50.904;5.530;2022-07-23T04:22:56;11.95;;;10.48;;
11066;SDS011;29763;50.904;5.530;2022-07-23T04:25:22;10.48;;;9.52;;
11066;SDS011;29763;50.904;5.530;2022-07-23T04:27:51;10.40;;;9.40;;
11066;SDS011;29763;50.904;5.530;2022-07-23T04:30:17;9.80;;;9.00;;
11066;SDS011;29763;50.904;5.530;2022-07-23T04:32:46;9.52;;;8.70;;
11066;SDS011;29763;50.904;5.530;2022-07-23T04:35:13;9.57;;;8.70;;
11066;SDS011;29763;50.904;5.530;2022-07-23T04:37:46;10.27;;;9.32;;
11066;SDS011;29763;50.904;5.530;2022-07-23T04:40:23;11.38;;;10.15;;
11066;SDS011;29763;50.904;5.530;2022-07-23T04:42:51;10.80;;;9.80;;
11066;SDS011;29763;50.904;5.530;2022-07-23T04:45:16;10.43;;;9.43;;
11066;SDS011;29763;50.904;5.530;2022-07-23T04:47:42;10.52;;;9.55;;
11066;SDS011;29763;50.904;5.530;2022-07-23T04:50:09;9.90;;;8.90;;
11066;SDS011;29763;50.904;5.530;2022-07-23T04:52:35;10.32;;;9.00;;
11066;SDS011;29763;50.904;5.530;2022-07-23T04:55:08;10.27;;;9.25;;
11066;SDS011;29763;50.904;5.530;2022-07-23T04:57:34;10.15;;;9.25;;
11066;SDS011;29763;50.904;5.530;2022-07-23T05:00:03;9.88;;;8.88;;
11066;SDS011;29763;50.904;5.530;2022-07-23T05:02:29;10.18;;;9.10;;
11066;SDS011;29763;50.904;5.530;2022-07-23T05:04:56;9.93;;;9.05;;
11066;SDS011;29763;50.904;5.530;2022-07-23T05:07:21;10.10;;;9.10;;
11066;SDS011;29763;50.904;5.530;2022-07-23T05:09:49;9.38;;;8.18;;
11066;SDS011;29763;50.904;5.530;2022-07-23T05:12:15;9.60;;;8.77;;
11066;SDS011;29763;50.904;5.530;2022-07-23T05:14:40;10.43;;;8.38;;
11066;SDS011;29763;50.904;5.530;2022-07-23T05:17:06;9.43;;;8.70;;
11066;SDS011;29763;50.904;5.530;2022-07-23T05:19:33;9.55;;;8.75;;
11066;SDS011;29763;50.904;5.530;2022-07-23T05:22:00;9.98;;;8.98;;
11066;SDS011;29763;50.904;5.530;2022-07-23T05:24:27;10.07;;;9.07;;
11066;SDS011;29763;50.904;5.530;2022-07-23T05:26:52;9.13;;;8.32;;
11066;SDS011;29763;50.904;5.530;2022-07-23T05:29:18;9.55;;;8.65;;
11066;SDS011;29763;50.904;5.530;2022-07-23T05:31:45;8.95;;;8.15;;
11066;SDS011;29763;50.904;5.530;2022-07-23T05:34:10;10.48;;;9.32;;
11066;SDS011;29763;50.904;5.530;2022-07-23T05:36:36;10.77;;;9.77;;
11066;SDS011;29763;50.904;5.530;2022-07-23T05:39:03;10.88;;;9.77;;
11066;SDS011;29763;50.904;5.530;2022-07-23T05:41:29;10.50;;;9.55;;
11066;SDS011;29763;50.904;5.530;2022-07-23T05:43:55;11.60;;;10.48;;
11066;SDS011;29763;50.904;5.530;2022-07-23T05:46:21;10.65;;;9.85;;
11066;SDS011;29763;50.904;5.530;2022-07-23T05:48:46;11.23;;;10.30;;
11066;SDS011;29763;50.904;5.530;2022-07-23T05:51:24;10.70;;;9.80;;
11066;SDS011;29763;50.904;5.530;2022-07-23T05:53:52;12.02;;;10.93;;
11066;SDS011;29763;50.904;5.530;2022-07-23T05:56:19;10.52;;;9.63;;
11066;SDS011;29763;50.904;5.530;2022-07-23T05:58:45;11.25;;;10.25;;
11066;SDS011;29763;50.904;5.530;2022-07-23T06:01:11;10.75;;;9.75;;
11066;SDS011;29763;50.904;5.530;2022-07-23T06:03:37;11.02;;;9.93;;
11066;SDS011;29763;50.904;5.530;2022-07-23T06:06:04;10.82;;;9.73;;
11066;SDS011;29763;50.904;5.530;2022-07-23T06:08:31;10.13;;;9.32;;
11066;SDS011;29763;50.904;5.530;2022-07-23T06:10:58;10.38;;;9.40;;
11066;SDS011;29763;50.904;5.530;2022-07-23T06:13:26;10.95;;;9.68;;
11066;SDS011;29763;50.904;5.530;2022-07-23T06:15:58;10.90;;;9.75;;
11066;SDS011;29763;50.904;5.530;2022-07-23T06:18:24;11.30;;;10.13;;
11066;SDS011;29763;50.904;5.530;2022-07-23T06:20:51;10.50;;;9.63;;
11066;SDS011;29763;50.904;5.530;2022-07-23T06:23:16;11.63;;;10.63;;
11066;SDS011;29763;50.904;5.530;2022-07-23T06:25:43;10.50;;;9.55;;
11066;SDS011;29763;50.904;5.530;2022-07-23T06:28:09;10.57;;;9.55;;
11066;SDS011;29763;50.904;5.530;2022-07-23T06:30:37;9.50;;;8.70;;
11066;SDS011;29763;50.904;5.530;2022-07-23T06:33:05;10.07;;;9.10;;
11066;SDS011;29763;50.904;5.530;2022-07-23T06:35:31;10.70;;;9.75;;
11066;SDS011;29763;50.904;5.530;2022-07-23T06:37:58;9.95;;;8.95;;
11066;SDS011;29763;50.904;5.530;2022-07-23T06:40:25;10.73;;;9.80;;
11066;SDS011;29763;50.904;5.530;2022-07-23T06:42:51;10.68;;;9.68;;
11066;SDS011;29763;50.904;5.530;2022-07-23T06:45:18;10.25;;;9.30;;
11066;SDS011;29763;50.904;5.530;2022-07-23T06:47:44;10.68;;;9.75;;
11066;SDS011;29763;50.904;5.530;2022-07-23T06:50:11;10.55;;;9.40;;
11066;SDS011;29763;50.904;5.530;2022-07-23T06:52:39;9.98;;;9.05;;
11066;SDS011;29763;50.904;5.530;2022-07-23T06:55:06;10.30;;;9.50;;
11066;SDS011;29763;50.904;5.530;2022-07-23T06:57:32;10.57;;;9.68;;
11066;SDS011;29763;50.904;5.530;2022-07-23T07:00:04;10.25;;;9.38;;
11066;SDS011;29763;50.904;5.530;2022-07-23T07:02:31;10.55;;;9.45;;
11066;SDS011;29763;50.904;5.530;2022-07-23T07:04:58;10.77;;;9.77;;
11066;SDS011;29763;50.904;5.530;2022-07-23T07:07:23;10.45;;;9.55;;
11066;SDS011;29763;50.904;5.530;2022-07-23T07:09:49;11.02;;;10.02;;
11066;SDS011;29763;50.904;5.530;2022-07-23T07:12:15;12.18;;;10.50;;
11066;SDS011;29763;50.904;5.530;2022-07-23T07:14:40;10.73;;;9.82;;
11066;SDS011;29763;50.904;5.530;2022-07-23T07:17:06;11.60;;;10.60;;
11066;SDS011;29763;50.904;5.530;2022-07-23T07:19:35;11.13;;;10.20;;
11066;SDS011;29763;50.904;5.530;2022-07-23T07:22:01;12.18;;;11.00;;
11066;SDS011;29763;50.904;5.530;2022-07-23T07:24:34;10.73;;;9.73;;
11066;SDS011;29763;50.904;5.530;2022-07-23T07:27:00;11.40;;;10.25;;
11066;SDS011;29763;50.904;5.530;2022-07-23T07:29:26;11.30;;;10.27;;
11066;SDS011;29763;50.904;5.530;2022-07-23T07:31:52;11.05;;;10.05;;
11066;SDS011;29763;50.904;5.530;2022-07-23T07:34:19;11.82;;;10.80;;
11066;SDS011;29763;50.904;5.530;2022-07-23T07:36:51;11.05;;;10.07;;
11066;SDS011;29763;50.904;5.530;2022-07-23T07:39:17;11.23;;;10.23;;
11066;SDS011;29763;50.904;5.530;2022-07-23T07:41:48;11.68;;;10.50;;
11066;SDS011;29763;50.904;5.530;2022-07-23T07:44:14;12.02;;;10.70;;
11066;SDS011;29763;50.904;5.530;2022-07-23T07:46:40;11.13;;;10.13;;
11066;SDS011;29763;50.904;5.530;2022-07-23T07:49:07;11.38;;;10.30;;
11066;SDS011;29763;50.904;5.530;2022-07-23T07:51:33;11.35;;;10.15;;
11066;SDS011;29763;50.904;5.530;2022-07-23T07:54:01;11.02;;;9.77;;
11066;SDS011;29763;50.904;5.530;2022-07-23T07:56:27;11.30;;;10.32;;
11066;SDS011;29763;50.904;5.530;2022-07-23T07:58:53;11.80;;;10.25;;
11066;SDS011;29763;50.904;5.530;2022-07-23T08:01:19;11.25;;;10.20;;
11066;SDS011;29763;50.904;5.530;2022-07-23T08:03:47;11.68;;;10.48;;
11066;SDS011;29763;50.904;5.530;2022-07-23T08:06:13;11.02;;;10.13;;
11066;SDS011;29763;50.904;5.530;2022-07-23T08:08:42;12.18;;;10.93;;
11066;SDS011;29763;50.904;5.530;2022-07-23T08:11:07;10.43;;;9.43;;
11066;SDS011;29763;50.904;5.530;2022-07-23T08:13:33;10.20;;;9.30;;
11066;SDS011;29763;50.904;5.530;2022-07-23T08:15:59;10.68;;;9.57;;
11066;SDS011;29763;50.904;5.530;2022-07-23T08:18:26;11.25;;;10.23;;
11066;SDS011;29763;50.904;5.530;2022-07-23T08:20:51;10.48;;;9.52;;
11066;SDS011;29763;50.904;5.530;2022-07-23T08:23:18;10.07;;;9.07;;
11066;SDS011;29763;50.904;5.530;2022-07-23T08:25:46;10.00;;;9.20;;
11066;SDS011;29763;50.904;5.530;2022-07-23T08:28:19;10.10;;;9.10;;
11066;SDS011;29763;50.904;5.530;2022-07-23T08:30:46;9.23;;;8.32;;
11066;SDS011;29763;50.904;5.530;2022-07-23T08:33:13;8.73;;;7.72;;
11066;SDS011;29763;50.904;5.530;2022-07-23T08:35:42;9.35;;;8.43;;
11066;SDS011;29763;50.904;5.530;2022-07-23T08:38:11;8.48;;;7.57;;
11066;SDS011;29763;50.904;5.530;2022-07-23T08:40:39;9.05;;;8.07;;
11066;SDS011;29763;50.904;5.530;2022-07-23T08:43:17;7.75;;;6.93;;
11066;SDS011;29763;50.904;5.530;2022-07-23T08:45:45;7.82;;;7.03;;
11066;SDS011;29763;50.904;5.530;2022-07-23T08:48:14;8.02;;;7.22;;
11066;SDS011;29763;50.904;5.530;2022-07-23T08:50:54;7.70;;;6.80;;
11066;SDS011;29763;50.904;5.530;2022-07-23T08:53:24;6.80;;;6.13;;
11066;SDS011;29763;50.904;5.530;2022-07-23T08:55:54;6.63;;;6.03;;
11066;SDS011;29763;50.904;5.530;2022-07-23T08:58:21;6.60;;;6.00;;
11066;SDS011;29763;50.904;5.530;2022-07-23T09:00:49;8.90;;;6.60;;
11066;SDS011;29763;50.904;5.530;2022-07-23T09:03:18;7.38;;;6.57;;
11066;SDS011;29763;50.904;5.530;2022-07-23T09:05:52;5.72;;;5.25;;
11066;SDS011;29763;50.904;5.530;2022-07-23T09:08:21;6.88;;;6.18;;
11066;SDS011;29763;50.904;5.530;2022-07-23T09:10:49;6.22;;;5.63;;
11066;SDS011;29763;50.904;5.530;2022-07-23T09:21:25;6.00;;;5.45;;
11066;SDS011;29763;50.904;5.530;2022-07-23T09:24:12;6.70;;;5.90;;
11066;SDS011;29763;50.904;5.530;2022-07-23T09:26:54;6.22;;;5.60;;
11066;SDS011;29763;50.904;5.530;2022-07-23T09:29:22;6.28;;;5.65;;
11066;SDS011;29763;50.904;5.530;2022-07-23T09:31:52;6.20;;;5.53;;
11066;SDS011;29763;50.904;5.530;2022-07-23T09:36:47;5.50;;;5.00;;
11066;SDS011;29763;50.904;5.530;2022-07-23T09:39:15;5.75;;;5.20;;
11066;SDS011;29763;50.904;5.530;2022-07-23T09:41:49;5.55;;;5.05;;
11066;SDS011;29763;50.904;5.530;2022-07-23T09:44:19;5.43;;;4.63;;
11066;SDS011;29763;50.904;5.530;2022-07-23T09:46:49;4.95;;;4.22;;
11066;SDS011;29763;50.904;5.530;2022-07-23T09:49:22;5.97;;;5.38;;
11066;SDS011;29763;50.904;5.530;2022-07-23T09:54:34;5.95;;;5.35;;
11066;SDS011;29763;50.904;5.530;2022-07-23T09:57:04;5.70;;;5.10;;
11066;SDS011;29763;50.904;5.530;2022-07-23T09:59:34;4.65;;;4.25;;
11066;SDS011;29763;50.904;5.530;2022-07-23T10:02:04;5.13;;;4.60;;
11066;SDS011;29763;50.904;5.530;2022-07-23T10:04:32;5.18;;;4.45;;
11066;SDS011;29763;50.904;5.530;2022-07-23T10:07:00;4.78;;;4.15;;
11066;SDS011;29763;50.904;5.530;2022-07-23T10:09:32;5.68;;;5.00;;
11066;SDS011;29763;50.904;5.530;2022-07-23T10:12:00;5.20;;;4.70;;
11066;SDS011;29763;50.904;5.530;2022-07-23T10:14:48;4.90;;;4.40;;
11066;SDS011;29763;50.904;5.530;2022-07-23T10:17:16;6.00;;;5.50;;
11066;SDS011;29763;50.904;5.530;2022-07-23T10:19:49;7.38;;;6.13;;
11066;SDS011;29763;50.904;5.530;2022-07-23T10:22:21;5.90;;;5.40;;
11066;SDS011;29763;50.904;5.530;2022-07-23T10:36:52;5.97;;;4.20;;
11066;SDS011;29763;50.904;5.530;2022-07-23T10:39:32;4.00;;;3.50;;
11066;SDS011;29763;50.904;5.530;2022-07-23T10:42:12;5.10;;;4.70;;
11066;SDS011;29763;50.904;5.530;2022-07-23T10:44:40;4.68;;;4.18;;
11066;SDS011;29763;50.904;5.530;2022-07-23T10:47:08;5.40;;;5.00;;
11066;SDS011;29763;50.904;5.530;2022-07-23T10:49:48;5.97;;;5.20;;
11066;SDS011;29763;50.904;5.530;2022-07-23T10:57:28;4.53;;;4.18;;
11066;SDS011;29763;50.904;5.530;2022-07-23T11:02:39;5.13;;;4.05;;
11066;SDS011;29763;50.904;5.530;2022-07-23T11:05:09;5.05;;;4.35;;
11066;SDS011;29763;50.904;5.530;2022-07-23T11:10:48;4.63;;;3.95;;
11066;SDS011;29763;50.904;5.530;2022-07-23T11:16:20;5.68;;;5.10;;
11066;SDS011;29763;50.904;5.530;2022-07-23T11:18:53;5.05;;;4.55;;
11066;SDS011;29763;50.904;5.530;2022-07-23T11:35:03;5.40;;;4.90;;
11066;SDS011;29763;50.904;5.530;2022-07-23T11:37:47;4.47;;;3.97;;
11066;SDS011;29763;50.904;5.530;2022-07-23T11:40:15;4.57;;;4.00;;
11066;SDS011;29763;50.904;5.530;2022-07-23T11:42:55;6.25;;;3.92;;
11066;SDS011;29763;50.904;5.530;2022-07-23T11:45:35;4.43;;;3.85;;
11066;SDS011;29763;50.904;5.530;2022-07-23T11:48:04;3.85;;;3.55;;
11066;SDS011;29763;50.904;5.530;2022-07-23T11:50:33;3.72;;;3.45;;
11066;SDS011;29763;50.904;5.530;2022-07-23T11:53:00;3.90;;;3.60;;
11066;SDS011;29763;50.904;5.530;2022-07-23T11:55:29;4.50;;;3.90;;
11066;SDS011;29763;50.904;5.530;2022-07-23T11:57:55;5.28;;;4.30;;
11066;SDS011;29763;50.904;5.530;2022-07-23T12:00:25;5.25;;;4.78;;
11066;SDS011;29763;50.904;5.530;2022-07-23T12:02:58;3.80;;;3.50;;
11066;SDS011;29763;50.904;5.530;2022-07-23T12:05:29;4.75;;;4.25;;
11066;SDS011;29763;50.904;5.530;2022-07-23T12:07:56;4.88;;;3.88;;
11066;SDS011;29763;50.904;5.530;2022-07-23T12:15:56;4.15;;;3.85;;
11066;SDS011;29763;50.904;5.530;2022-07-23T12:18:24;4.00;;;3.53;;
11066;SDS011;29763;50.904;5.530;2022-07-23T12:20:52;3.75;;;3.45;;
11066;SDS011;29763;50.904;5.530;2022-07-23T12:23:22;4.28;;;3.92;;
11066;SDS011;29763;50.904;5.530;2022-07-23T12:25:49;4.95;;;3.58;;
11066;SDS011;29763;50.904;5.530;2022-07-23T12:28:19;3.92;;;3.60;;
11066;SDS011;29763;50.904;5.530;2022-07-23T12:30:57;4.88;;;3.50;;
11066;SDS011;29763;50.904;5.530;2022-07-23T12:33:25;4.20;;;3.80;;
11066;SDS011;29763;50.904;5.530;2022-07-23T12:35:57;4.07;;;3.78;;
11066;SDS011;29763;50.904;5.530;2022-07-23T12:38:26;4.25;;;3.90;;
11066;SDS011;29763;50.904;5.530;2022-07-23T12:49:26;3.88;;;3.58;;
11066;SDS011;29763;50.904;5.530;2022-07-23T12:51:55;4.10;;;3.70;;
11066;SDS011;29763;50.904;5.530;2022-07-23T12:54:26;3.75;;;3.10;;
11066;SDS011;29763;50.904;5.530;2022-07-23T12:56:53;3.33;;;3.13;;
11066;SDS011;29763;50.904;5.530;2022-07-23T12:59:19;3.25;;;2.95;;
11066;SDS011;29763;50.904;5.530;2022-07-23T13:01:54;3.78;;;3.47;;
11066;SDS011;29763;50.904;5.530;2022-07-23T13:04:24;3.78;;;3.25;;
11066;SDS011;29763;50.904;5.530;2022-07-23T13:06:52;5.30;;;3.15;;
11066;SDS011;29763;50.904;5.530;2022-07-23T13:09:30;4.45;;;3.40;;
11066;SDS011;29763;50.904;5.530;2022-07-23T13:11:58;3.40;;;3.10;;
11066;SDS011;29763;50.904;5.530;2022-07-23T13:14:25;4.22;;;2.97;;
11066;SDS011;29763;50.904;5.530;2022-07-23T13:16:51;3.05;;;2.78;;
11066;SDS011;29763;50.904;5.530;2022-07-23T13:19:18;3.25;;;2.85;;
11066;SDS011;29763;50.904;5.530;2022-07-23T13:21:44;3.40;;;3.10;;
11066;SDS011;29763;50.904;5.530;2022-07-23T13:24:14;3.47;;;3.17;;
11066;SDS011;29763;50.904;5.530;2022-07-23T13:26:40;3.47;;;3.15;;
11066;SDS011;29763;50.904;5.530;2022-07-23T13:29:06;3.60;;;3.10;;
11066;SDS011;29763;50.904;5.530;2022-07-23T13:31:32;3.53;;;3.05;;
11066;SDS011;29763;50.904;5.530;2022-07-23T13:33:58;3.10;;;2.90;;
11066;SDS011;29763;50.904;5.530;2022-07-23T13:36:24;3.17;;;2.88;;
11066;SDS011;29763;50.904;5.530;2022-07-23T13:38:53;2.97;;;2.50;;
11066;SDS011;29763;50.904;5.530;2022-07-23T13:41:19;3.17;;;2.88;;
11066;SDS011;29763;50.904;5.530;2022-07-23T13:43:45;3.08;;;2.80;;
11066;SDS011;29763;50.904;5.530;2022-07-23T13:46:10;3.90;;;2.80;;
11066;SDS011;29763;50.904;5.530;2022-07-23T13:48:36;3.55;;;2.83;;
11066;SDS011;29763;50.904;5.530;2022-07-23T13:51:02;3.15;;;2.67;;
11066;SDS011;29763;50.904;5.530;2022-07-23T13:53:28;3.83;;;3.15;;
11066;SDS011;29763;50.904;5.530;2022-07-23T13:55:54;3.45;;;3.15;;
11066;SDS011;29763;50.904;5.530;2022-07-23T13:58:20;4.57;;;3.20;;
11066;SDS011;29763;50.904;5.530;2022-07-23T14:00:47;3.97;;;3.20;;
11066;SDS011;29763;50.904;5.530;2022-07-23T14:03:15;4.00;;;2.90;;
11066;SDS011;29763;50.904;5.530;2022-07-23T14:05:42;3.55;;;3.25;;
11066;SDS011;29763;50.904;5.530;2022-07-23T14:08:08;6.53;;;4.03;;
11066;SDS011;29763;50.904;5.530;2022-07-23T14:10:35;2.90;;;2.58;;
11066;SDS011;29763;50.904;5.530;2022-07-23T14:13:01;4.47;;;3.17;;
11066;SDS011;29763;50.904;5.530;2022-07-23T14:15:27;4.45;;;3.80;;
11066;SDS011;29763;50.904;5.530;2022-07-23T14:17:54;3.72;;;3.10;;
11066;SDS011;29763;50.904;5.530;2022-07-23T14:20:21;3.00;;;2.80;;
11066;SDS011;29763;50.904;5.530;2022-07-23T14:22:47;6.35;;;3.35;;
11066;SDS011;29763;50.904;5.530;2022-07-23T14:25:14;3.28;;;2.97;;
11066;SDS011;29763;50.904;5.530;2022-07-23T14:27:40;5.68;;;3.58;;
11066;SDS011;29763;50.904;5.530;2022-07-23T14:30:07;5.53;;;3.65;;
11066;SDS011;29763;50.904;5.530;2022-07-23T14:32:34;5.13;;;3.47;;
11066;SDS011;29763;50.904;5.530;2022-07-23T14:35:00;3.67;;;3.33;;
11066;SDS011;29763;50.904;5.530;2022-07-23T14:37:26;3.15;;;2.90;;
11066;SDS011;29763;50.904;5.530;2022-07-23T14:39:52;3.35;;;2.90;;
11066;SDS011;29763;50.904;5.530;2022-07-23T14:42:18;3.33;;;2.75;;
11066;SDS011;29763;50.904;5.530;2022-07-23T14:44:44;5.60;;;4.47;;
11066;SDS011;29763;50.904;5.530;2022-07-23T14:47:10;4.20;;;3.10;;
11066;SDS011;29763;50.904;5.530;2022-07-23T14:49:36;3.40;;;3.00;;
11066;SDS011;29763;50.904;5.530;2022-07-23T14:52:02;3.28;;;2.97;;
11066;SDS011;29763;50.904;5.530;2022-07-23T14:54:29;3.60;;;3.13;;
11066;SDS011;29763;50.904;5.530;2022-07-23T14:56:57;3.55;;;3.25;;
11066;SDS011;29763;50.904;5.530;2022-07-23T14:59:23;3.80;;;3.15;;
11066;SDS011;29763;50.904;5.530;2022-07-23T15:01:52;3.17;;;2.70;;
11066;SDS011;29763;50.904;5.530;2022-07-23T15:04:19;3.20;;;3.00;;
11066;SDS011;29763;50.904;5.530;2022-07-23T15:06:48;3.58;;;3.22;;
11066;SDS011;29763;50.904;5.530;2022-07-23T15:09:14;3.40;;;3.10;;
11066;SDS011;29763;50.904;5.530;2022-07-23T15:11:40;3.80;;;3.50;;
11066;SDS011;29763;50.904;5.530;2022-07-23T15:14:06;4.25;;;3.80;;
11066;SDS011;29763;50.904;5.530;2022-07-23T15:16:33;3.40;;;3.10;;
11066;SDS011;29763;50.904;5.530;2022-07-23T15:19:00;4.13;;;3.50;;
11066;SDS011;29763;50.904;5.530;2022-07-23T15:21:27;3.47;;;3.28;;
11066;SDS011;29763;50.904;5.530;2022-07-23T15:23:56;3.42;;;3.13;;
11066;SDS011;29763;50.904;5.530;2022-07-23T15:26:26;3.60;;;3.17;;
11066;SDS011;29763;50.904;5.530;2022-07-23T15:28:52;5.10;;;3.58;;
11066;SDS011;29763;50.904;5.530;2022-07-23T15:31:18;3.50;;;3.20;;
11066;SDS011;29763;50.904;5.530;2022-07-23T15:33:44;3.83;;;3.42;;
11066;SDS011;29763;50.904;5.530;2022-07-23T15:36:10;4.10;;;3.70;;
11066;SDS011;29763;50.904;5.530;2022-07-23T15:38:36;4.32;;;3.70;;
11066;SDS011;29763;50.904;5.530;2022-07-23T15:41:02;3.50;;;3.28;;
11066;SDS011;29763;50.904;5.530;2022-07-23T15:43:27;4.85;;;3.45;;
11066;SDS011;29763;50.904;5.530;2022-07-23T15:45:53;4.70;;;3.80;;
11066;SDS011;29763;50.904;5.530;2022-07-23T15:48:19;3.83;;;3.53;;
11066;SDS011;29763;50.904;5.530;2022-07-23T15:50:46;5.18;;;3.78;;